createdAt,value
2023-03-19T00:00:38.465Z,9.07
2023-03-19T00:03:05.392Z,8.75
2023-03-19T00:05:32.243Z,7.97
2023-03-19T00:07:58.850Z,7.97
2023-03-19T00:10:26.250Z,7.55
2023-03-19T00:12:52.922Z,7.72
2023-03-19T00:15:19.747Z,8.00
2023-03-19T00:17:46.393Z,7.32
2023-03-19T00:20:15.124Z,6.80
2023-03-19T00:22:42.164Z,6.85
2023-03-19T00:25:10.113Z,6.75
2023-03-19T00:27:38.227Z,7.55
2023-03-19T00:30:07.107Z,7.13
2023-03-19T00:32:34.251Z,6.93
2023-03-19T00:35:01.537Z,6.50
2023-03-19T00:37:28.627Z,7.68
2023-03-19T00:39:55.884Z,7.30
2023-03-19T00:42:22.535Z,6.82
2023-03-19T00:44:49.117Z,6.00
2023-03-19T00:47:15.827Z,6.85
2023-03-19T00:49:42.512Z,7.95
2023-03-19T00:52:09.165Z,6.65
2023-03-19T00:54:35.982Z,6.28
2023-03-19T00:57:02.663Z,7.82
2023-03-19T00:59:29.401Z,6.25
2023-03-19T01:01:56.121Z,6.75
2023-03-19T01:04:23.469Z,6.65
2023-03-19T01:06:50.161Z,7.55
2023-03-19T01:09:16.768Z,8.55
2023-03-19T01:11:43.447Z,7.45
2023-03-19T01:14:10.297Z,7.93
2023-03-19T01:16:37.026Z,6.97
2023-03-19T01:19:04.048Z,7.05
2023-03-19T01:21:31.283Z,8.00
2023-03-19T01:23:58.898Z,7.07
2023-03-19T01:26:26.228Z,7.22
2023-03-19T01:28:53.131Z,7.40
2023-03-19T01:31:20.000Z,7.97
2023-03-19T01:33:46.921Z,9.90
2023-03-19T01:36:13.774Z,9.30
2023-03-19T01:38:40.839Z,9.18
2023-03-19T01:41:08.249Z,10.35
2023-03-19T01:43:35.200Z,9.02
2023-03-19T01:46:12.067Z,10.80
2023-03-19T01:48:47.401Z,10.07
2023-03-19T01:51:17.037Z,10.05
2023-03-19T01:53:47.651Z,9.48
2023-03-19T01:56:45.563Z,10.10
2023-03-19T01:59:21.435Z,11.20
2023-03-19T02:01:55.437Z,13.02
2023-03-19T02:04:23.667Z,11.85
2023-03-19T02:06:50.522Z,13.05
2023-03-19T02:09:18.927Z,12.63
2023-03-19T02:11:46.214Z,13.63
2023-03-19T02:14:13.511Z,14.20
2023-03-19T02:16:40.242Z,13.88
2023-03-19T02:19:13.554Z,14.73
2023-03-19T02:21:40.371Z,14.38
2023-03-19T02:24:14.204Z,15.18
2023-03-19T02:26:43.399Z,15.23
2023-03-19T02:29:11.168Z,16.08
2023-03-19T02:31:38.047Z,15.20
2023-03-19T02:34:24.766Z,14.13
2023-03-19T02:36:57.193Z,15.05
2023-03-19T02:39:30.994Z,14.68
2023-03-19T02:41:59.218Z,13.98
2023-03-19T02:44:26.508Z,13.50
2023-03-19T02:46:53.332Z,13.68
2023-03-19T02:49:20.357Z,13.10
2023-03-19T02:51:47.126Z,13.23
2023-03-19T02:54:13.696Z,12.98
2023-03-19T02:56:40.466Z,12.65
2023-03-19T02:59:07.397Z,14.85
2023-03-19T03:01:34.051Z,25.45
2023-03-19T03:04:00.611Z,17.70
2023-03-19T03:06:27.244Z,13.88
2023-03-19T03:08:54.574Z,12.77
2023-03-19T03:11:21.178Z,12.30
2023-03-19T03:13:47.762Z,14.13
2023-03-19T03:16:14.366Z,12.65
2023-03-19T03:18:41.573Z,14.38
2023-03-19T03:21:08.383Z,16.20
2023-03-19T03:23:34.960Z,18.58
2023-03-19T03:26:01.824Z,20.58
2023-03-19T03:28:28.721Z,12.43
2023-03-19T03:31:00.036Z,14.52
2023-03-19T03:33:27.326Z,13.15
2023-03-19T03:35:54.522Z,11.65
2023-03-19T03:38:21.472Z,11.02
2023-03-19T03:40:52.671Z,10.57
2023-03-19T03:43:21.439Z,8.63
2023-03-19T03:45:49.071Z,5.68
2023-03-19T03:48:16.703Z,5.80
2023-03-19T03:50:44.022Z,5.55
2023-03-19T03:53:12.934Z,4.22
2023-03-19T03:55:39.800Z,5.28
2023-03-19T03:58:06.571Z,7.72
2023-03-19T04:00:33.554Z,6.88
2023-03-19T04:03:00.374Z,6.25
2023-03-19T04:05:27.143Z,7.57
2023-03-19T04:07:53.823Z,6.90
2023-03-19T04:10:20.537Z,8.57
2023-03-19T04:12:47.839Z,7.10
2023-03-19T04:15:14.620Z,6.70
2023-03-19T04:17:41.792Z,7.22
2023-03-19T04:20:09.545Z,7.20
2023-03-19T04:22:36.622Z,7.45
2023-03-19T04:25:03.416Z,8.50
2023-03-19T04:27:30.004Z,8.32
2023-03-19T04:29:56.625Z,8.73
2023-03-19T04:32:23.882Z,8.60
2023-03-19T04:34:50.544Z,9.32
2023-03-19T04:37:17.540Z,8.75
2023-03-19T04:39:44.613Z,8.45
2023-03-19T04:42:11.564Z,9.60
2023-03-19T04:44:38.745Z,8.73
2023-03-19T04:47:05.800Z,9.30
2023-03-19T04:49:32.447Z,9.52
2023-03-19T04:51:59.326Z,9.90
2023-03-19T04:54:26.061Z,9.77
2023-03-19T04:56:53.291Z,8.30
2023-03-19T04:59:21.877Z,7.57
2023-03-19T05:01:49.600Z,7.72
2023-03-19T05:04:16.231Z,7.28
2023-03-19T05:06:42.902Z,7.80
2023-03-19T05:09:09.467Z,8.13
2023-03-19T05:11:36.510Z,7.70
2023-03-19T05:14:03.178Z,7.38
2023-03-19T05:16:30.039Z,8.15
2023-03-19T05:18:56.887Z,8.25
2023-03-19T05:21:23.800Z,8.43
2023-03-19T05:23:52.853Z,7.63
2023-03-19T05:26:19.443Z,10.70
2023-03-19T05:28:46.069Z,10.35
2023-03-19T05:31:12.907Z,10.85
2023-03-19T05:33:39.569Z,8.57
2023-03-19T05:36:08.023Z,7.15
2023-03-19T05:38:34.919Z,7.38
2023-03-19T05:41:05.758Z,7.80
2023-03-19T05:43:32.819Z,8.48
2023-03-19T05:45:59.985Z,8.20
2023-03-19T05:48:26.727Z,7.75
2023-03-19T05:50:53.292Z,7.40
2023-03-19T05:53:20.493Z,6.93
2023-03-19T05:55:47.356Z,8.65
2023-03-19T05:58:14.005Z,6.78
2023-03-19T06:00:40.712Z,7.28
2023-03-19T06:03:07.493Z,5.40
2023-03-19T06:05:34.823Z,4.55
2023-03-19T06:08:01.498Z,4.75
2023-03-19T06:10:28.183Z,3.80
2023-03-19T06:12:54.821Z,4.07
2023-03-19T06:15:21.512Z,3.72
2023-03-19T06:17:48.629Z,4.45
2023-03-19T06:20:15.434Z,5.18
2023-03-19T06:22:42.320Z,6.07
2023-03-19T06:25:09.112Z,5.90
2023-03-19T06:27:35.905Z,6.10
2023-03-19T06:30:02.667Z,11.75
2023-03-19T06:32:29.429Z,12.60
2023-03-19T06:34:56.860Z,12.43
2023-03-19T06:37:23.840Z,11.02
2023-03-19T06:39:51.528Z,12.88
2023-03-19T06:42:18.365Z,9.82
2023-03-19T06:44:45.142Z,10.18
2023-03-19T06:47:11.897Z,10.65
2023-03-19T06:49:38.530Z,10.18
2023-03-19T06:52:05.136Z,10.63
2023-03-19T06:54:31.918Z,11.40
2023-03-19T06:56:59.365Z,9.93
2023-03-19T06:59:26.760Z,8.98
2023-03-19T07:01:53.475Z,9.07
2023-03-19T07:04:20.792Z,8.77
2023-03-19T07:06:47.581Z,8.32
2023-03-19T07:09:14.347Z,6.70
2023-03-19T07:11:41.376Z,7.72
2023-03-19T07:14:08.060Z,8.35
2023-03-19T07:16:35.043Z,10.35
2023-03-19T07:19:01.682Z,10.93
2023-03-19T07:21:29.080Z,8.57
2023-03-19T07:23:56.164Z,9.40
2023-03-19T07:26:22.939Z,8.65
2023-03-19T07:28:49.502Z,8.23
2023-03-19T07:31:17.220Z,7.68
2023-03-19T07:33:44.131Z,6.85
2023-03-19T07:36:11.346Z,7.20
2023-03-19T07:38:38.007Z,7.80
2023-03-19T07:41:04.849Z,7.35
2023-03-19T07:43:31.918Z,7.43
2023-03-19T07:45:59.241Z,7.85
2023-03-19T07:48:26.128Z,7.20
2023-03-19T07:50:53.296Z,7.45
2023-03-19T07:53:20.044Z,6.60
2023-03-19T07:55:47.829Z,7.35
2023-03-19T07:58:15.021Z,6.72
2023-03-19T08:00:41.865Z,7.35
2023-03-19T08:03:08.740Z,7.15
2023-03-19T08:05:35.528Z,6.63
2023-03-19T08:08:02.100Z,6.68
2023-03-19T08:10:28.971Z,7.05
2023-03-19T08:12:57.918Z,7.10
2023-03-19T08:15:24.516Z,5.75
2023-03-19T08:17:58.273Z,6.95
2023-03-19T08:20:24.833Z,5.97
2023-03-19T08:22:51.535Z,5.50
2023-03-19T08:25:18.466Z,7.28
2023-03-19T08:27:45.039Z,6.70
2023-03-19T08:30:12.554Z,5.80
2023-03-19T08:32:39.152Z,6.15
2023-03-19T08:35:06.726Z,6.30
2023-03-19T08:37:33.557Z,5.70
2023-03-19T08:40:00.354Z,6.68
2023-03-19T08:42:27.122Z,5.60
2023-03-19T08:44:53.831Z,6.40
2023-03-19T08:47:24.278Z,6.28
2023-03-19T08:49:51.947Z,7.50
2023-03-19T08:52:19.831Z,6.47
2023-03-19T08:54:46.676Z,6.18
2023-03-19T08:57:13.335Z,6.10
2023-03-19T08:59:39.861Z,6.22
2023-03-19T09:02:07.406Z,5.95
2023-03-19T09:04:39.011Z,5.90
2023-03-19T09:07:06.328Z,5.53
2023-03-19T09:09:33.793Z,6.65
2023-03-19T09:12:00.746Z,5.90
2023-03-19T09:14:27.384Z,5.20
2023-03-19T09:16:55.820Z,5.03
2023-03-19T09:19:23.780Z,4.07
2023-03-19T09:21:50.798Z,5.30
2023-03-19T09:24:18.825Z,5.28
2023-03-19T09:26:46.195Z,7.95
2023-03-19T09:29:13.915Z,5.40
2023-03-19T09:31:40.758Z,4.80
2023-03-19T09:34:08.860Z,4.82
2023-03-19T09:36:36.961Z,3.72
2023-03-19T09:39:04.762Z,3.42
2023-03-19T09:41:31.477Z,5.68
2023-03-19T09:44:16.497Z,6.53
2023-03-19T09:46:56.256Z,5.78
2023-03-19T09:49:27.646Z,6.07
2023-03-19T09:52:12.509Z,5.80
2023-03-19T09:54:48.448Z,5.85
2023-03-19T09:57:17.497Z,6.15
2023-03-19T09:59:45.491Z,6.80
2023-03-19T10:02:27.065Z,6.72
2023-03-19T10:05:24.226Z,6.55
2023-03-19T10:07:56.927Z,6.18
2023-03-19T10:10:45.928Z,6.78
2023-03-19T10:13:26.449Z,6.28
2023-03-19T10:15:55.691Z,7.45
2023-03-19T10:18:35.521Z,5.78
2023-03-19T10:21:18.121Z,5.35
2023-03-19T10:23:56.836Z,4.95
2023-03-19T10:26:30.353Z,5.70
2023-03-19T10:29:09.564Z,5.00
2023-03-19T10:32:15.129Z,3.97
2023-03-19T10:34:48.873Z,3.63
2023-03-19T10:37:29.662Z,4.25
2023-03-19T10:40:00.917Z,5.00
2023-03-19T10:42:55.443Z,3.50
2023-03-19T10:45:27.886Z,4.00
2023-03-19T10:47:56.740Z,4.75
2023-03-19T10:50:31.435Z,4.07
2023-03-19T10:53:37.917Z,4.07
2023-03-19T10:56:05.718Z,3.55
2023-03-19T10:58:35.568Z,5.15
2023-03-19T11:01:05.038Z,3.78
2023-03-19T11:03:50.621Z,4.22
2023-03-19T11:06:23.900Z,4.13
2023-03-19T11:08:56.653Z,4.05
2023-03-19T11:11:50.587Z,3.67
2023-03-19T11:14:39.240Z,2.97
2023-03-19T11:17:26.141Z,3.15
2023-03-19T11:19:55.708Z,4.07
2023-03-19T11:22:22.983Z,3.15
2023-03-19T11:24:53.373Z,3.45
2023-03-19T11:27:31.456Z,3.03
2023-03-19T11:29:59.124Z,3.40
2023-03-19T11:32:25.958Z,3.78
2023-03-19T11:34:59.922Z,3.05
2023-03-19T11:37:33.968Z,2.90
2023-03-19T11:40:06.663Z,2.30
2023-03-19T11:43:04.104Z,2.50
2023-03-19T11:45:43.791Z,1.88
2023-03-19T11:48:16.255Z,2.40
2023-03-19T11:50:58.622Z,2.17
2023-03-19T11:53:49.455Z,2.35
2023-03-19T11:56:30.092Z,2.38
2023-03-19T11:59:35.663Z,2.50
2023-03-19T12:02:14.199Z,2.33
2023-03-19T12:05:03.973Z,3.10
2023-03-19T12:07:46.213Z,2.33
2023-03-19T12:10:35.049Z,2.75
2023-03-19T12:13:39.449Z,2.05
2023-03-19T12:16:11.013Z,2.45
2023-03-19T12:18:50.196Z,2.60
2023-03-19T12:21:42.555Z,2.58
2023-03-19T12:24:17.863Z,3.33
2023-03-19T12:27:22.057Z,2.58
2023-03-19T12:30:06.717Z,2.90
2023-03-19T12:32:58.677Z,3.10
2023-03-19T12:35:36.802Z,2.97
2023-03-19T12:38:32.923Z,3.20
2023-03-19T12:41:10.804Z,3.33
2023-03-19T12:43:54.410Z,2.70
2023-03-19T12:46:42.399Z,2.50
2023-03-19T12:49:21.092Z,3.20
2023-03-19T12:51:56.460Z,2.40
2023-03-19T12:54:32.822Z,2.00
2023-03-19T12:57:01.626Z,2.10
2023-03-19T12:59:40.796Z,3.45
2023-03-19T13:02:26.717Z,3.67
2023-03-19T13:05:23.083Z,3.80
2023-03-19T13:08:27.796Z,3.55
2023-03-19T13:10:54.372Z,2.00
2023-03-19T13:13:39.393Z,1.25
2023-03-19T13:16:24.652Z,1.40
2023-03-19T13:19:18.179Z,1.95
2023-03-19T13:21:46.682Z,1.60
2023-03-19T13:24:25.367Z,1.85
2023-03-19T13:26:54.051Z,1.85
2023-03-19T13:29:26.304Z,3.22
2023-03-19T13:31:59.915Z,1.30
2023-03-19T13:34:29.017Z,2.20
2023-03-19T13:37:04.403Z,1.25
2023-03-19T13:39:34.069Z,1.60
2023-03-19T13:42:21.519Z,1.35
2023-03-19T13:45:03.572Z,1.23
2023-03-19T13:47:32.263Z,1.48
2023-03-19T13:50:19.166Z,1.63
2023-03-19T13:52:45.820Z,1.45
2023-03-19T13:55:30.342Z,2.05
2023-03-19T13:58:12.414Z,2.38
2023-03-19T14:00:43.086Z,1.50
2023-03-19T14:03:30.206Z,1.55
2023-03-19T14:05:58.117Z,1.65
2023-03-19T14:08:28.429Z,1.40
2023-03-19T14:10:58.567Z,1.52
2023-03-19T14:13:33.910Z,1.42
2023-03-19T14:16:17.809Z,1.30
2023-03-19T14:18:45.098Z,1.35
2023-03-19T14:21:18.961Z,1.95
2023-03-19T14:23:54.978Z,1.80
2023-03-19T14:26:28.988Z,3.00
2023-03-19T14:29:01.399Z,1.77
2023-03-19T14:31:44.260Z,1.80
2023-03-19T14:34:10.832Z,1.73
2023-03-19T14:36:42.705Z,2.58
2023-03-19T14:39:24.913Z,2.00
2023-03-19T14:42:06.356Z,1.50
2023-03-19T14:45:04.251Z,1.10
2023-03-19T14:47:39.729Z,1.77
2023-03-19T14:50:30.427Z,1.20
2023-03-19T14:53:03.477Z,1.20
2023-03-19T14:55:38.729Z,1.20
2023-03-19T14:58:05.713Z,1.20
2023-03-19T15:00:51.287Z,1.35
2023-03-19T15:03:37.993Z,1.85
2023-03-19T15:06:07.970Z,0.95
2023-03-19T15:08:37.119Z,1.30
2023-03-19T15:11:09.503Z,1.65
2023-03-19T15:13:54.511Z,1.55
2023-03-19T15:16:43.500Z,1.48
2023-03-19T15:19:11.489Z,1.83
2023-03-19T15:21:39.639Z,2.17
2023-03-19T15:24:07.477Z,1.25
2023-03-19T15:26:36.582Z,1.90
2023-03-19T15:29:04.443Z,1.48
2023-03-19T15:31:51.498Z,1.42
2023-03-19T15:34:23.590Z,3.65
2023-03-19T15:36:58.402Z,2.50
2023-03-19T15:39:29.057Z,2.00
2023-03-19T15:41:56.963Z,2.70
2023-03-19T15:44:44.796Z,2.33
2023-03-19T15:47:15.948Z,1.75
2023-03-19T15:50:02.403Z,1.63
2023-03-19T15:52:33.640Z,2.63
2023-03-19T15:55:02.314Z,1.95
2023-03-19T15:57:29.406Z,1.90
2023-03-19T15:59:59.375Z,2.15
2023-03-19T16:02:31.160Z,2.20
2023-03-19T16:05:22.564Z,2.22
2023-03-19T16:07:58.673Z,2.20
2023-03-19T16:10:28.278Z,2.63
2023-03-19T16:12:56.283Z,4.72
2023-03-19T16:15:36.102Z,5.00
2023-03-19T16:18:18.190Z,5.32
2023-03-19T16:20:48.436Z,5.30
2023-03-19T16:23:18.491Z,6.00
2023-03-19T16:25:46.989Z,5.90
2023-03-19T16:28:19.115Z,5.60
2023-03-19T16:30:47.665Z,6.03
2023-03-19T16:33:15.362Z,6.47
2023-03-19T16:35:44.794Z,6.35
2023-03-19T16:38:22.900Z,6.82
2023-03-19T16:41:10.880Z,6.75
2023-03-19T16:43:44.052Z,6.82
2023-03-19T16:46:13.000Z,7.93
2023-03-19T16:48:39.806Z,6.85
2023-03-19T16:51:18.516Z,7.47
2023-03-19T16:53:46.278Z,6.80
2023-03-19T16:56:15.608Z,6.70
2023-03-19T16:58:46.000Z,6.75
2023-03-19T17:01:16.580Z,7.75
2023-03-19T17:03:44.605Z,8.10
2023-03-19T17:06:15.237Z,8.98
2023-03-19T17:08:43.040Z,8.85
2023-03-19T17:11:26.954Z,8.50
2023-03-19T17:13:55.507Z,8.23
2023-03-19T17:16:22.178Z,8.32
2023-03-19T17:18:49.626Z,9.57
2023-03-19T17:21:23.267Z,9.52
2023-03-19T17:23:50.015Z,8.35
2023-03-19T17:26:26.692Z,7.97
2023-03-19T17:28:54.549Z,9.80
2023-03-19T17:31:29.037Z,11.07
2023-03-19T17:34:10.525Z,10.88
2023-03-19T17:36:37.433Z,10.15
2023-03-19T17:39:04.958Z,11.57
2023-03-19T17:41:33.152Z,11.85
2023-03-19T17:44:03.678Z,13.50
2023-03-19T17:46:37.497Z,13.23
2023-03-19T17:49:04.405Z,14.40
2023-03-19T17:51:31.270Z,13.63
2023-03-19T17:53:57.875Z,13.65
2023-03-19T17:56:25.678Z,12.52
2023-03-19T17:58:53.697Z,12.07
2023-03-19T18:01:23.709Z,13.20
2023-03-19T18:03:52.077Z,10.90
2023-03-19T18:06:21.072Z,11.13
2023-03-19T18:08:47.835Z,10.90
2023-03-19T18:11:14.842Z,10.77
2023-03-19T18:13:42.270Z,11.23
2023-03-19T18:16:20.329Z,11.75
2023-03-19T18:18:48.787Z,11.23
2023-03-19T18:21:15.851Z,11.43
2023-03-19T18:23:43.516Z,10.32
2023-03-19T18:26:11.890Z,11.50
2023-03-19T18:28:39.130Z,11.23
2023-03-19T18:31:15.195Z,10.98
2023-03-19T18:33:46.357Z,12.88
2023-03-19T18:36:17.973Z,14.38
2023-03-19T18:38:44.724Z,13.00
2023-03-19T18:41:17.988Z,11.70
2023-03-19T18:43:44.669Z,13.32
2023-03-19T18:46:21.074Z,13.55
2023-03-19T18:48:47.893Z,11.82
2023-03-19T18:51:15.055Z,11.07
2023-03-19T18:53:41.927Z,10.70
2023-03-19T18:56:31.016Z,11.35
2023-03-19T18:58:59.487Z,11.35
2023-03-19T19:01:27.047Z,11.05
2023-03-19T19:03:55.199Z,10.15
2023-03-19T19:06:36.622Z,9.10
2023-03-19T19:09:12.749Z,10.02
2023-03-19T19:11:41.907Z,10.30
2023-03-19T19:14:16.084Z,10.13
2023-03-19T19:16:42.799Z,8.98
2023-03-19T19:19:23.112Z,10.68
2023-03-19T19:21:51.535Z,11.38
2023-03-19T19:24:18.150Z,10.80
2023-03-19T19:26:46.860Z,11.15
2023-03-19T19:29:25.032Z,10.98
2023-03-19T19:31:52.871Z,11.60
2023-03-19T19:34:19.583Z,12.90
2023-03-19T19:36:46.177Z,14.30
2023-03-19T19:39:13.106Z,14.25
2023-03-19T19:41:40.506Z,19.58
2023-03-19T19:44:07.558Z,14.50
2023-03-19T19:46:34.401Z,13.82
2023-03-19T19:49:01.413Z,12.15
2023-03-19T19:51:29.622Z,10.38
2023-03-19T19:53:56.221Z,12.35
2023-03-19T19:56:25.943Z,13.35
2023-03-19T19:58:54.672Z,13.10
2023-03-19T20:01:23.890Z,11.88
2023-03-19T20:03:52.320Z,11.15
2023-03-19T20:06:19.643Z,11.55
2023-03-19T20:08:49.368Z,11.23
2023-03-19T20:11:22.166Z,11.48
2023-03-19T20:13:54.357Z,11.43
2023-03-19T20:16:23.885Z,11.60
2023-03-19T20:18:53.587Z,11.27
2023-03-19T20:21:20.766Z,10.63
2023-03-19T20:23:47.693Z,11.52
2023-03-19T20:26:20.694Z,10.05
2023-03-19T20:28:47.632Z,11.35
2023-03-19T20:31:24.832Z,10.77
2023-03-19T20:33:51.590Z,11.00
2023-03-19T20:36:19.616Z,10.82
2023-03-19T20:38:46.382Z,11.00
2023-03-19T20:41:20.456Z,13.02
2023-03-19T20:43:47.997Z,12.95
2023-03-19T20:46:15.954Z,15.30
2023-03-19T20:48:42.720Z,20.40
2023-03-19T20:51:15.276Z,33.20
2023-03-19T20:53:42.026Z,36.00
2023-03-19T20:56:17.634Z,36.63
2023-03-19T20:58:45.617Z,27.67
2023-03-19T21:01:15.564Z,27.23
2023-03-19T21:03:42.557Z,31.00
2023-03-19T21:06:18.028Z,32.20
2023-03-19T21:08:47.875Z,32.15
2023-03-19T21:11:20.501Z,33.35
2023-03-19T21:13:48.323Z,31.23
2023-03-19T21:16:26.038Z,30.38
2023-03-19T21:18:54.046Z,30.02
2023-03-19T21:21:29.733Z,28.15
2023-03-19T21:24:00.358Z,29.15
2023-03-19T21:26:27.060Z,29.70
2023-03-19T21:28:58.796Z,32.05
2023-03-19T21:31:27.103Z,33.17
2023-03-19T21:33:55.375Z,31.92
2023-03-19T21:36:24.301Z,32.88
2023-03-19T21:38:55.267Z,29.30
2023-03-19T21:41:24.836Z,28.63
2023-03-19T21:44:03.914Z,27.20
2023-03-19T21:46:31.743Z,28.23
2023-03-19T21:48:59.037Z,24.90
2023-03-19T21:51:28.273Z,21.00
2023-03-19T21:53:54.985Z,22.17
2023-03-19T21:56:33.368Z,24.17
2023-03-19T21:59:02.716Z,19.23
2023-03-19T22:01:29.403Z,19.15
2023-03-19T22:03:57.637Z,20.10
2023-03-19T22:06:25.197Z,21.63
2023-03-19T22:08:54.124Z,25.40
2023-03-19T22:11:38.678Z,26.73
2023-03-19T22:14:13.558Z,24.88
2023-03-19T22:16:40.410Z,26.33
2023-03-19T22:19:07.028Z,22.42
2023-03-19T22:21:34.793Z,24.83
2023-03-19T22:24:01.545Z,24.67
2023-03-19T22:26:35.052Z,16.35
2023-03-19T22:29:19.861Z,25.67
2023-03-19T22:31:50.515Z,20.70
2023-03-19T22:34:19.067Z,12.68
2023-03-19T22:36:46.101Z,15.23
2023-03-19T22:39:13.718Z,10.93
2023-03-19T22:41:45.994Z,14.82
2023-03-19T22:44:29.702Z,14.30
2023-03-19T22:46:58.305Z,15.63
2023-03-19T22:49:25.085Z,14.32
2023-03-19T22:51:51.980Z,16.63
2023-03-19T22:54:18.596Z,17.73
2023-03-19T22:56:45.221Z,18.50
2023-03-19T22:59:11.889Z,16.92
2023-03-19T23:01:46.789Z,20.08
2023-03-19T23:04:23.981Z,18.13
2023-03-19T23:06:52.855Z,17.35
2023-03-19T23:09:28.167Z,16.70
2023-03-19T23:11:55.057Z,14.27
2023-03-19T23:14:29.819Z,14.38
2023-03-19T23:16:59.866Z,15.40
2023-03-19T23:19:32.763Z,14.70
2023-03-19T23:22:01.023Z,16.55
2023-03-19T23:24:28.042Z,17.80
2023-03-19T23:26:56.649Z,20.73
2023-03-19T23:29:36.047Z,20.38
2023-03-19T23:32:04.516Z,19.30
2023-03-19T23:34:33.502Z,18.10
2023-03-19T23:37:02.681Z,18.55
2023-03-19T23:39:29.362Z,18.33
2023-03-19T23:41:58.672Z,18.73
2023-03-19T23:44:27.195Z,18.00
2023-03-19T23:46:55.600Z,19.80
2023-03-19T23:49:32.523Z,19.88
2023-03-19T23:52:00.265Z,19.38
2023-03-19T23:54:31.299Z,19.67
2023-03-19T23:57:01.245Z,21.08
2023-03-19T23:59:32.466Z,18.35
